Time,TemperatureF,DewpointF,PressureIn,WindDirection,WindDirectionDegrees,WindSpeedMPH,WindSpeedGustMPH,Humidity,HourlyPrecipIn,Conditions,Clouds,dailyrainin,SolarRadiationWatts/m^2,SoftwareType,DateUTC
2013-09-02 00:04:00,75.9,65.4,30.06,SE,135,2.2,3.5,70,0.00,RA,BKN,0.00,0.0,WeatherDisplay:10.37,2013-09-02 10:04:00,
2013-09-02 00:09:00,75.7,65.3,30.06,NNW,338,4.3,5.9,70,0.00,RA,BKN,0.00,0.0,WeatherDisplay:10.37,2013-09-02 10:09:00,
2013-09-02 00:14:00,75.9,65.4,30.06,North,0,2.4,4.6,70,0.00,SCT,BKN,0.00,0.0,WeatherDisplay:10.37,2013-09-02 10:14:00,
2013-09-02 00:19:00,75.9,65.4,30.06,ENE,68,0.0,4.6,70,0.00,SCT,BKN,0.00,0.0,WeatherDisplay:10.37,2013-09-02 10:19:00,
2013-09-02 00:24:00,75.7,65.3,30.03,NW,315,2.9,4.6,70,0.00,SCT,BKN,0.00,0.0,WeatherDisplay:10.37,2013-09-02 10:24:00,
2013-09-02 00:29:00,75.7,65.3,30.03,NNW,338,5.9,8.1,70,0.00,SCT,BKN,0.00,0.0,WeatherDisplay:10.37,2013-09-02 10:29:00,
2013-09-02 00:34:00,75.7,64.8,30.03,NE,45,3.6,4.6,69,0.00,SCT,BKN,0.00,0.0,WeatherDisplay:10.37,2013-09-02 10:34:00,
2013-09-02 00:39:00,75.7,65.3,30.06,NNW,338,4.3,5.8,70,0.00,SCT,BKN,0.00,0.0,WeatherDisplay:10.37,2013-09-02 10:39:00,
2013-09-02 00:44:00,75.7,65.3,30.06,NNE,22,2.6,4.6,70,0.00,SCT,BKN,0.00,0.0,WeatherDisplay:10.37,2013-09-02 10:44:00,
2013-09-02 00:49:00,75.7,65.3,30.06,North,0,3.1,5.8,70,0.00,SCT,BKN,0.00,0.0,WeatherDisplay:10.37,2013-09-02 10:49:00,
2013-09-02 00:54:00,75.6,65.1,30.03,NE,45,2.6,4.6,70,0.00,SCT,BKN,0.00,0.0,WeatherDisplay:10.37,2013-09-02 10:54:00,
2013-09-02 00:59:00,75.6,65.1,30.03,NNW,338,2.4,2.4,70,0.00,SCT,BKN,0.00,0.0,WeatherDisplay:10.37,2013-09-02 10:59:00,
2013-09-02 01:04:00,75.6,65.1,30.03,NW,315,4.7,6.9,70,0.00,SCT,BKN,0.00,0.0,WeatherDisplay:10.37,2013-09-02 11:04:00,
2013-09-02 01:09:00,75.6,65.1,30.03,NNW,338,3.3,5.8,70,0.00,SCT,BKN,0.00,0.0,WeatherDisplay:10.37,2013-09-02 11:09:00,
2013-09-02 01:14:00,75.4,64.5,30.03,North,0,5.6,8.1,69,0.00,SCT,BKN,0.00,0.0,WeatherDisplay:10.37,2013-09-02 11:14:00,
2013-09-02 01:19:00,75.4,64.5,30.03,SSW,202,0.9,2.3,69,0.00,SCT,BKN,0.00,0.0,WeatherDisplay:10.37,2013-09-02 11:19:00,
2013-09-02 01:24:00,75.4,64.5,30.03,North,0,2.6,5.8,69,0.00,SCT,BKN,0.00,0.0,WeatherDisplay:10.37,2013-09-02 11:24:00,
2013-09-02 01:29:00,75.4,64.9,30.03,NE,45,4.0,4.6,70,0.00,SCT,BKN,0.00,0.0,WeatherDisplay:10.37,2013-09-02 11:29:00,
2013-09-02 01:34:00,75.6,65.1,30.03,NNE,22,4.0,4.6,70,0.00,SCT,BKN,0.00,0.0,WeatherDisplay:10.37,2013-09-02 11:34:00,
2013-09-02 01:39:00,75.4,64.9,30.03,NE,45,2.6,4.6,70,0.00,SCT,BKN,0.00,0.0,WeatherDisplay:10.37,2013-09-02 11:39:00,
2013-09-02 01:44:00,75.6,65.1,30.03,NE,45,3.3,4.6,70,0.00,SCT,BKN,0.00,0.0,WeatherDisplay:10.37,2013-09-02 11:44:00,
2013-09-02 01:49:00,75.4,64.5,30.03,ENE,68,2.6,4.6,69,0.00,SCT,BKN,0.00,0.0,WeatherDisplay:10.37,2013-09-02 11:49:00,
2013-09-02 01:54:00,75.4,64.5,30.03,NNE,22,2.6,3.5,69,0.00,SCT,BKN,0.00,0.0,WeatherDisplay:10.37,2013-09-02 11:54:00,
2013-09-02 01:59:00,75.6,65.5,30.03,WNW,292,4.7,5.8,71,0.00,SCT,BKN,0.00,0.0,WeatherDisplay:10.37,2013-09-02 11:59:00,
2013-09-02 02:04:00,75.6,64.7,30.03,NE,45,3.8,5.8,69,0.00,SCT,BKN,0.00,0.0,WeatherDisplay:10.37,2013-09-02 12:04:00,
2013-09-02 02:09:00,75.4,64.5,30.03,NNE,22,1.6,2.9,69,0.00,SCT,BKN,0.00,0.0,WeatherDisplay:10.37,2013-09-02 12:09:00,
2013-09-02 02:14:00,75.4,64.5,30.03,NE,45,4.9,6.2,69,0.00,SCT,BKN,0.00,0.0,WeatherDisplay:10.37,2013-09-02 12:14:00,
2013-09-02 02:19:00,75.4,65.3,30.03,East,90,4.9,8.1,71,0.00,SCT,BKN,0.00,0.0,WeatherDisplay:10.37,2013-09-02 12:19:00,
2013-09-02 02:24:00,75.4,64.9,30.03,NW,315,2.9,4.6,70,0.00,SCT,BKN,0.00,0.0,WeatherDisplay:10.37,2013-09-02 12:24:00,
2013-09-02 02:29:00,75.2,65.1,30.03,NNE,22,2.6,4.3,71,0.00,SCT,BKN,0.00,0.0,WeatherDisplay:10.37,2013-09-02 12:29:00,
2013-09-02 02:34:00,75.2,64.7,30.03,NNE,22,1.2,2.3,70,0.00,SCT,BKN,0.00,0.0,WeatherDisplay:10.37,2013-09-02 12:34:00,
2013-09-02 02:39:00,75.2,65.1,30.00,NNE,22,4.5,7.4,71,0.00,SCT,BKN,0.00,0.0,WeatherDisplay:10.37,2013-09-02 12:39:00,
2013-09-02 02:44:00,75.2,64.7,30.00,NNW,338,2.4,3.5,70,0.00,SCT,BKN,0.00,0.0,WeatherDisplay:10.37,2013-09-02 12:44:00,
2013-09-02 02:49:00,75.2,64.7,30.00,NE,45,4.3,5.8,70,0.00,SCT,BKN,0.00,0.0,WeatherDisplay:10.37,2013-09-02 12:49:00,
2013-09-02 02:54:00,75.2,64.7,30.00,NNE,22,0.9,2.4,70,0.00,SCT,BKN,0.00,0.0,WeatherDisplay:10.37,2013-09-02 12:54:00,
2013-09-02 02:59:00,75.2,64.7,30.00,ENE,68,3.8,5.8,70,0.00,SCT,BKN,0.00,0.0,WeatherDisplay:10.37,2013-09-02 12:59:00,
2013-09-02 03:04:00,75.0,64.6,30.00,NE,45,4.0,4.9,70,0.00,SCT,BKN,0.00,0.0,WeatherDisplay:10.37,2013-09-02 13:04:00,
2013-09-02 03:09:00,75.2,64.3,30.00,West,270,0.9,5.8,69,0.00,SCT,BKN,0.00,0.0,WeatherDisplay:10.37,2013-09-02 13:09:00,
2013-09-02 03:14:00,75.2,64.7,30.00,NNW,338,4.3,6.4,70,0.00,SCT,BKN,0.00,0.0,WeatherDisplay:10.37,2013-09-02 13:14:00,
2013-09-02 03:19:00,75.2,64.7,30.00,East,90,3.6,6.9,70,0.00,SCT,BKN,0.00,0.0,WeatherDisplay:10.37,2013-09-02 13:19:00,
2013-09-02 03:24:00,75.0,64.6,30.00,North,0,2.2,2.6,70,0.00,SCT,BKN,0.00,0.0,WeatherDisplay:10.37,2013-09-02 13:24:00,
2013-09-02 03:29:00,75.2,64.7,30.00,NNE,22,2.2,2.6,70,0.00,SCT,BKN,0.00,0.0,WeatherDisplay:10.37,2013-09-02 13:29:00,
2013-09-02 03:34:00,75.0,64.6,30.00,NNE,22,4.3,5.8,70,0.00,SCT,BKN,0.00,0.0,WeatherDisplay:10.37,2013-09-02 13:34:00,
2013-09-02 03:39:00,75.2,64.7,30.00,NW,315,3.8,4.6,70,0.00,SCT,BKN,0.00,0.0,WeatherDisplay:10.37,2013-09-02 13:39:00,
2013-09-02 03:44:00,75.4,64.5,30.00,NE,45,2.6,5.8,69,0.00,SCT,BKN,0.00,0.0,WeatherDisplay:10.37,2013-09-02 13:44:00,
2013-09-02 03:49:00,75.4,64.9,30.00,North,0,4.5,7.4,70,0.00,SCT,BKN,0.00,0.0,WeatherDisplay:10.37,2013-09-02 13:49:00,
2013-09-02 03:54:00,75.4,64.5,29.97,NNE,22,4.7,8.1,69,0.00,SCT,BKN,0.00,0.0,WeatherDisplay:10.37,2013-09-02 13:54:00,
2013-09-02 03:59:00,75.4,64.5,29.97,East,90,2.6,3.1,69,0.00,SCT,BKN,0.00,0.0,WeatherDisplay:10.37,2013-09-02 13:59:00,
2013-09-02 04:04:00,75.2,64.7,29.97,NNW,338,2.2,5.8,70,0.00,SCT,BKN,0.00,0.0,WeatherDisplay:10.37,2013-09-02 14:04:00,
2013-09-02 04:09:00,75.2,64.3,30.00,NNW,338,2.2,3.5,69,0.00,SCT,BKN,0.00,0.0,WeatherDisplay:10.37,2013-09-02 14:09:00,
2013-09-02 04:14:00,75.2,64.3,30.00,WNW,292,2.0,3.5,69,0.00,SCT,BKN,0.00,0.0,WeatherDisplay:10.37,2013-09-02 14:14:00,
2013-09-02 04:19:00,75.2,64.3,30.00,South,180,4.7,15.0,69,0.00,SCT,BKN,0.00,0.0,WeatherDisplay:10.37,2013-09-02 14:19:00,
2013-09-02 04:24:00,75.2,64.3,30.00,North,0,1.2,2.3,69,0.00,SCT,BKN,0.00,0.0,WeatherDisplay:10.37,2013-09-02 14:24:00,
2013-09-02 04:29:00,75.2,64.3,30.00,North,0,0.0,2.3,69,0.00,SCT,BKN,0.00,0.0,WeatherDisplay:10.37,2013-09-02 14:29:00,
2013-09-02 04:34:00,75.2,64.3,30.00,NE,45,3.6,8.1,69,0.00,SCT,BKN,0.00,0.0,WeatherDisplay:10.37,2013-09-02 14:34:00,
2013-09-02 04:39:00,75.2,64.7,30.00,North,0,2.0,3.5,70,0.00,SCT,BKN,0.00,0.0,WeatherDisplay:10.37,2013-09-02 14:39:00,
2013-09-02 04:44:00,75.2,64.7,30.00,NW,315,2.2,5.8,70,0.00,SCT,BKN,0.00,0.0,WeatherDisplay:10.37,2013-09-02 14:44:00,
2013-09-02 04:49:00,75.2,64.7,30.00,NNE,22,3.1,3.5,70,0.00,SCT,BKN,0.00,0.0,WeatherDisplay:10.37,2013-09-02 14:49:00,
2013-09-02 04:54:00,75.2,65.1,30.00,ENE,68,3.8,4.6,71,0.00,SCT,BKN,0.00,0.0,WeatherDisplay:10.37,2013-09-02 14:54:00,
2013-09-02 04:59:00,75.0,65.0,30.00,NNW,338,1.2,2.9,71,0.00,SCT,BKN,0.00,0.0,WeatherDisplay:10.37,2013-09-02 14:59:00,
2013-09-02 05:04:00,75.0,65.4,30.00,NNE,22,3.1,3.5,72,0.00,SCT,BKN,0.00,0.0,WeatherDisplay:10.37,2013-09-02 15:04:00,
2013-09-02 05:09:00,75.0,65.4,30.00,North,0,3.1,3.5,72,0.00,SCT,BKN,0.00,0.0,WeatherDisplay:10.37,2013-09-02 15:09:00,
2013-09-02 05:14:00,75.0,65.4,30.00,East,90,0.9,0.0,72,0.00,SCT,BKN,0.00,0.0,WeatherDisplay:10.37,2013-09-02 15:14:00,
2013-09-02 05:19:00,74.8,65.2,30.00,NE,45,3.3,5.9,72,0.00,SCT,BKN,0.00,0.0,WeatherDisplay:10.37,2013-09-02 15:19:00,
2013-09-02 05:24:00,74.8,65.2,30.00,ENE,68,0.9,1.4,72,0.00,SCT,BKN,0.00,0.0,WeatherDisplay:10.37,2013-09-02 15:24:00,
2013-09-02 05:29:00,74.7,65.0,30.00,NE,45,1.4,2.3,72,0.00,SCT,BKN,0.00,0.0,WeatherDisplay:10.37,2013-09-02 15:29:00,
2013-09-02 05:34:00,74.8,65.6,30.00,NW,315,2.4,3.5,73,0.00,SCT,BKN,0.00,0.0,WeatherDisplay:10.37,2013-09-02 15:34:00,
2013-09-02 05:39:00,74.8,65.6,30.03,NE,45,3.6,4.6,73,0.00,SCT,BKN,0.00,0.0,WeatherDisplay:10.37,2013-09-02 15:39:00,
2013-09-02 05:44:00,74.8,65.6,30.03,NE,45,2.2,3.5,73,0.00,SCT,BKN,0.00,0.0,WeatherDisplay:10.37,2013-09-02 15:44:00,
2013-09-02 05:49:00,74.8,65.6,30.03,East,90,3.8,5.8,73,0.00,SCT,BKN,0.00,0.0,WeatherDisplay:10.37,2013-09-02 15:49:00,
2013-09-02 05:54:00,74.5,66.0,30.03,NE,45,2.0,3.6,75,0.00,SCT,BKN,0.00,0.0,WeatherDisplay:10.37,2013-09-02 15:54:00,
2013-09-02 05:59:00,73.6,66.3,30.03,NE,45,1.4,3.1,78,0.00,SCT,BKN,0.00,0.0,WeatherDisplay:10.37,2013-09-02 15:59:00,
2013-09-02 06:04:00,72.9,67.4,30.03,SW,225,3.8,5.8,83,0.00,SCT,BKN,0.00,0.0,WeatherDisplay:10.37,2013-09-02 16:04:00,
2013-09-02 06:09:00,72.9,67.0,30.03,East,90,0.0,4.6,82,0.00,SCT,BKN,0.00,0.0,WeatherDisplay:10.37,2013-09-02 16:09:00,
2013-09-02 06:14:00,72.5,67.7,30.03,NE,45,2.9,4.6,85,0.00,SCT,BKN,0.00,0.0,WeatherDisplay:10.37,2013-09-02 16:14:00,
2013-09-02 06:19:00,72.1,67.4,30.03,NNE,22,2.9,5.8,85,0.00,SCT,BKN,0.00,0.0,WeatherDisplay:10.37,2013-09-02 16:19:00,
2013-09-02 06:24:00,72.1,67.0,30.03,NE,45,2.2,2.6,84,0.00,SCT,BKN,0.00,0.0,WeatherDisplay:10.37,2013-09-02 16:24:00,
2013-09-02 06:29:00,72.1,67.0,30.03,ESE,112,2.0,2.6,84,0.00,SCT,BKN,0.00,0.0,WeatherDisplay:10.37,2013-09-02 16:29:00,
2013-09-02 06:34:00,72.0,66.9,30.03,NE,45,2.0,3.5,84,0.00,SCT,BKN,0.00,0.0,WeatherDisplay:10.37,2013-09-02 16:34:00,
2013-09-02 06:39:00,72.1,67.0,30.06,East,90,2.2,4.6,84,0.00,SCT,BKN,0.00,0.0,WeatherDisplay:10.37,2013-09-02 16:39:00,
2013-09-02 06:44:00,72.1,67.0,30.06,ENE,68,0.9,3.3,84,0.00,SCT,BKN,0.00,0.0,WeatherDisplay:10.37,2013-09-02 16:44:00,
2013-09-02 06:49:00,72.1,67.0,30.06,East,90,2.9,4.6,84,0.00,SCT,BKN,0.00,0.0,WeatherDisplay:10.37,2013-09-02 16:49:00,
2013-09-02 06:54:00,72.3,66.9,30.03,NE,45,2.0,3.5,83,0.00,SCT,BKN,0.00,0.0,WeatherDisplay:10.37,2013-09-02 16:54:00,
2013-09-02 06:59:00,72.7,66.9,30.03,NE,45,3.6,3.6,82,0.00,SCT,BKN,0.00,0.0,WeatherDisplay:10.37,2013-09-02 16:59:00,
2013-09-02 07:04:00,73.0,66.9,30.03,NE,45,3.3,5.4,81,0.00,SCT,BKN,0.00,0.0,WeatherDisplay:10.37,2013-09-02 17:04:00,
2013-09-02 07:09:00,73.2,67.0,30.06,NE,45,4.5,5.9,81,0.00,SCT,BKN,0.00,0.0,WeatherDisplay:10.37,2013-09-02 17:09:00,
2013-09-02 07:14:00,73.6,66.7,30.06,NE,45,4.0,5.8,79,0.00,SCT,BKN,0.00,0.0,WeatherDisplay:10.37,2013-09-02 17:14:00,
2013-09-02 07:19:00,73.8,66.5,30.06,NE,45,3.8,4.6,78,0.00,SCT,BKN,0.00,0.0,WeatherDisplay:10.37,2013-09-02 17:19:00,
2013-09-02 07:24:00,73.8,66.1,30.06,East,90,1.6,2.3,77,0.00,SCT,BKN,0.00,0.0,WeatherDisplay:10.37,2013-09-02 17:24:00,
2013-09-02 07:29:00,73.8,66.1,30.06,NE,45,3.6,4.6,77,0.00,SCT,BKN,0.00,0.0,WeatherDisplay:10.37,2013-09-02 17:29:00,
2013-09-02 07:34:00,73.9,65.9,30.06,East,90,1.4,4.6,76,0.00,SCT,BKN,0.00,0.0,WeatherDisplay:10.37,2013-09-02 17:34:00,
2013-09-02 07:39:00,74.1,66.1,30.06,NNE,22,0.0,0.0,76,0.00,SCT,BKN,0.00,0.0,WeatherDisplay:10.37,2013-09-02 17:39:00,
2013-09-02 07:44:00,74.3,66.6,30.06,NNW,338,3.6,3.6,77,0.00,SCT,BKN,0.00,0.0,WeatherDisplay:10.37,2013-09-02 17:44:00,
2013-09-02 07:49:00,74.7,65.8,30.06,ESE,112,3.1,4.6,74,0.00,SCT,BKN,0.00,0.0,WeatherDisplay:10.37,2013-09-02 17:49:00,
2013-09-02 07:54:00,74.8,66.0,30.06,NNE,22,3.6,6.4,74,0.00,SCT,BKN,0.00,0.0,WeatherDisplay:10.37,2013-09-02 17:54:00,
2013-09-02 07:59:00,74.8,66.0,30.06,East,90,2.2,3.5,74,0.00,SCT,BKN,0.00,0.0,WeatherDisplay:10.37,2013-09-02 17:59:00,
2013-09-02 08:04:00,74.7,65.4,30.06,NE,45,3.8,5.8,73,0.00,SCT,BKN,0.00,0.0,WeatherDisplay:10.37,2013-09-02 18:04:00,
2013-09-02 08:09:00,74.7,65.0,30.06,NE,45,2.9,3.6,72,0.00,SCT,BKN,0.00,0.0,WeatherDisplay:10.37,2013-09-02 18:09:00,
2013-09-02 08:14:00,75.0,65.8,30.06,NNW,338,1.2,3.5,73,0.00,SCT,BKN,0.00,0.0,WeatherDisplay:10.37,2013-09-02 18:14:00,
2013-09-02 08:19:00,75.4,66.1,30.06,NE,45,2.4,4.6,73,0.00,SCT,BKN,0.00,0.0,WeatherDisplay:10.37,2013-09-02 18:19:00,
2013-09-02 08:24:00,75.6,66.3,30.06,East,90,0.0,3.5,73,0.00,SCT,BKN,0.00,0.0,WeatherDisplay:10.37,2013-09-02 18:24:00,
2013-09-02 08:29:00,75.7,66.5,30.06,WSW,248,2.4,4.6,73,0.00,SCT,BKN,0.00,0.0,WeatherDisplay:10.37,2013-09-02 18:29:00,
2013-09-02 08:34:00,75.7,66.9,30.06,East,90,1.6,3.5,74,0.00,SCT,BKN,0.00,0.0,WeatherDisplay:10.37,2013-09-02 18:34:00,
2013-09-02 08:39:00,75.9,66.6,30.06,North,0,3.8,6.9,73,0.00,SCT,BKN,0.00,0.0,WeatherDisplay:10.37,2013-09-02 18:39:00,
2013-09-02 08:44:00,76.1,66.8,30.06,NE,45,3.6,4.6,73,0.00,SCT,BKN,0.00,0.0,WeatherDisplay:10.37,2013-09-02 18:44:00,
2013-09-02 08:49:00,76.3,67.0,30.06,NE,45,2.2,3.6,73,0.00,SCT,BKN,0.00,0.0,WeatherDisplay:10.37,2013-09-02 18:49:00,
2013-09-02 08:54:00,76.3,67.4,30.06,NNW,338,2.2,2.3,74,0.00,SCT,BKN,0.00,0.0,WeatherDisplay:10.37,2013-09-02 18:54:00,
2013-09-02 08:59:00,75.7,67.2,30.06,East,90,0.0,0.0,75,0.00,SCT,BKN,0.00,0.0,WeatherDisplay:10.37,2013-09-02 18:59:00,
2013-09-02 09:04:00,75.2,67.5,30.06,WSW,248,2.9,4.6,77,0.00,SCT,BKN,0.00,0.0,WeatherDisplay:10.37,2013-09-02 19:04:00,
2013-09-02 09:09:00,75.4,68.0,30.06,NNE,22,3.8,5.4,78,0.00,SCT,BKN,0.00,0.0,WeatherDisplay:10.37,2013-09-02 19:09:00,
2013-09-02 09:14:00,75.6,67.8,30.06,NNE,22,2.4,4.6,77,0.00,SCT,BKN,0.00,0.0,WeatherDisplay:10.37,2013-09-02 19:14:00,
2013-09-02 09:19:00,75.6,67.8,30.06,NE,45,0.0,0.0,77,0.00,SCT,BKN,0.00,0.0,WeatherDisplay:10.37,2013-09-02 19:19:00,
2013-09-02 09:24:00,75.6,67.8,30.09,NNE,22,2.9,3.8,77,0.00,SCT,BKN,0.00,0.0,WeatherDisplay:10.37,2013-09-02 19:24:00,
2013-09-02 09:29:00,75.9,67.0,30.09,ENE,68,5.9,6.9,74,0.00,SCT,BKN,0.00,0.0,WeatherDisplay:10.37,2013-09-02 19:29:00,
2013-09-02 09:34:00,76.5,67.6,30.09,NNW,338,2.0,2.3,74,0.00,SCT,BKN,0.00,0.0,WeatherDisplay:10.37,2013-09-02 19:34:00,
2013-09-02 09:39:00,76.6,66.9,30.03,North,0,3.3,5.8,72,0.00,SCT,BKN,0.00,0.0,WeatherDisplay:10.37,2013-09-02 19:39:00,
2013-09-02 09:44:00,76.6,66.5,30.03,NE,45,4.7,5.4,71,0.00,SCT,BKN,0.00,0.0,WeatherDisplay:10.37,2013-09-02 19:44:00,
2013-09-02 09:49:00,76.8,67.1,30.03,West,270,3.8,4.7,72,0.00,SCT,BKN,0.00,0.0,WeatherDisplay:10.37,2013-09-02 19:49:00,
2013-09-02 09:54:00,77.2,67.0,30.06,North,0,3.1,4.6,71,0.00,SCT,BKN,0.00,0.0,WeatherDisplay:10.37,2013-09-02 19:54:00,
2013-09-02 09:59:00,77.5,67.0,30.06,ENE,68,3.6,5.8,70,0.00,SCT,BKN,0.00,0.0,WeatherDisplay:10.37,2013-09-02 19:59:00,
2013-09-02 10:04:00,77.7,67.2,30.06,North,0,0.0,3.5,70,0.00,SCT,BKN,0.00,0.0,WeatherDisplay:10.37,2013-09-02 20:04:00,
2013-09-02 10:09:00,77.7,66.7,30.06,East,90,3.6,5.9,69,0.00,SCT,BKN,0.00,0.0,WeatherDisplay:10.37,2013-09-02 20:09:00,
2013-09-02 10:14:00,77.9,66.9,30.06,NE,45,2.4,5.8,69,0.00,SCT,BKN,0.00,0.0,WeatherDisplay:10.37,2013-09-02 20:14:00,
2013-09-02 10:19:00,78.1,67.1,30.06,ENE,68,6.0,8.1,69,0.00,SCT,BKN,0.00,0.0,WeatherDisplay:10.37,2013-09-02 20:19:00,
2013-09-02 10:24:00,78.1,67.1,30.06,NE,45,4.0,4.6,69,0.00,SCT,BKN,0.00,0.0,WeatherDisplay:10.37,2013-09-02 20:24:00,
2013-09-02 10:29:00,78.3,67.3,30.06,NE,45,0.9,2.3,69,0.00,SCT,BKN,0.00,0.0,WeatherDisplay:10.37,2013-09-02 20:29:00,
2013-09-02 10:34:00,78.3,67.3,30.06,NE,45,4.5,5.8,69,0.00,SCT,BKN,0.00,0.0,WeatherDisplay:10.37,2013-09-02 20:34:00,
2013-09-02 10:39:00,78.1,67.1,30.06,NE,45,5.9,9.8,69,0.00,SCT,BKN,0.00,0.0,WeatherDisplay:10.37,2013-09-02 20:39:00,
2013-09-02 10:44:00,77.5,67.0,30.06,NE,45,2.6,4.6,70,0.00,SCT,BKN,0.00,0.0,WeatherDisplay:10.37,2013-09-02 20:44:00,
2013-09-02 10:49:00,77.9,67.7,30.06,East,90,1.2,2.3,71,0.00,SCT,BKN,0.00,0.0,WeatherDisplay:10.37,2013-09-02 20:49:00,
2013-09-02 10:54:00,78.1,67.9,30.06,ENE,68,2.6,4.6,71,0.00,SCT,BKN,0.00,0.0,WeatherDisplay:10.37,2013-09-02 20:54:00,
2013-09-02 10:59:00,77.9,67.3,30.06,NE,45,4.3,8.1,70,0.00,SCT,BKN,0.00,0.0,WeatherDisplay:10.37,2013-09-02 20:59:00,
2013-09-02 11:04:00,78.3,66.8,30.06,ESE,112,2.4,6.9,68,0.00,SCT,BKN,0.00,0.0,WeatherDisplay:10.37,2013-09-02 21:04:00,
2013-09-02 11:09:00,79.3,67.9,30.06,NNE,22,2.0,3.5,68,0.00,SCT,BKN,0.00,0.0,WeatherDisplay:10.37,2013-09-02 21:09:00,
2013-09-02 11:14:00,79.2,66.8,30.06,NNW,338,3.8,5.4,66,0.00,SCT,BKN,0.00,0.0,WeatherDisplay:10.37,2013-09-02 21:14:00,
2013-09-02 11:19:00,79.5,67.2,30.06,East,90,4.3,5.8,66,0.00,SCT,BKN,0.00,0.0,WeatherDisplay:10.37,2013-09-02 21:19:00,
2013-09-02 11:24:00,79.9,67.1,30.09,WNW,292,2.2,4.6,65,0.00,SCT,BKN,0.00,0.0,WeatherDisplay:10.37,2013-09-02 21:24:00,
2013-09-02 11:29:00,79.9,67.1,30.09,SW,225,1.6,4.6,65,0.00,SCT,BKN,0.00,0.0,WeatherDisplay:10.37,2013-09-02 21:29:00,
2013-09-02 11:34:00,80.2,67.4,30.09,ESE,112,1.6,3.6,65,0.00,SCT,BKN,0.00,0.0,WeatherDisplay:10.37,2013-09-02 21:34:00,
2013-09-02 11:39:00,79.9,66.2,30.06,ESE,112,3.3,5.8,63,0.00,SCT,BKN,0.00,0.0,WeatherDisplay:10.37,2013-09-02 21:39:00,
2013-09-02 11:44:00,81.3,67.5,30.06,ENE,68,2.6,4.6,63,0.00,SCT,BKN,0.00,0.0,WeatherDisplay:10.37,2013-09-02 21:44:00,
2013-09-02 11:49:00,82.0,67.3,30.06,NW,315,2.0,5.8,61,0.00,SCT,BKN,0.00,0.0,WeatherDisplay:10.37,2013-09-02 21:49:00,
2013-09-02 11:54:00,82.0,66.8,30.06,South,180,4.7,8.1,60,0.00,SCT,BKN,0.00,0.0,WeatherDisplay:10.37,2013-09-02 21:54:00,
2013-09-02 11:59:00,81.5,66.3,30.06,East,90,3.6,5.8,60,0.00,SCT,BKN,0.00,0.0,WeatherDisplay:10.37,2013-09-02 21:59:00,
2013-09-02 12:04:00,81.9,66.6,30.06,North,0,3.3,4.6,60,0.00,SCT,BKN,0.00,0.0,WeatherDisplay:10.37,2013-09-02 22:04:00,
2013-09-02 12:09:00,82.8,67.0,30.06,East,90,3.6,5.8,59,0.00,SCT,BKN,0.00,0.0,WeatherDisplay:10.37,2013-09-02 22:09:00,
2013-09-02 12:14:00,84.2,67.3,30.06,SSW,202,2.0,3.5,57,0.00,SCT,BKN,0.00,0.0,WeatherDisplay:10.37,2013-09-02 22:14:00,
2013-09-02 12:19:00,84.4,68.5,30.06,NE,45,0.9,1.6,59,0.00,SCT,BKN,0.00,0.0,WeatherDisplay:10.37,2013-09-02 22:19:00,
2013-09-02 12:24:00,85.1,67.1,30.03,NNE,22,2.6,6.9,55,0.00,SCT,BKN,0.00,0.0,WeatherDisplay:10.37,2013-09-02 22:24:00,
2013-09-02 12:29:00,86.5,69.0,30.03,North,0,1.2,2.3,56,0.00,SCT,BKN,0.00,0.0,WeatherDisplay:10.37,2013-09-02 22:29:00,
2013-09-02 12:34:00,85.8,66.7,30.03,West,270,4.3,5.8,53,0.00,SCT,BKN,0.00,0.0,WeatherDisplay:10.37,2013-09-02 22:34:00,
2013-09-02 12:39:00,86.7,67.0,30.03,NNW,338,2.9,4.6,52,0.00,SCT,BKN,0.00,0.0,WeatherDisplay:10.37,2013-09-02 22:39:00,
2013-09-02 12:44:00,86.2,65.9,30.03,WSW,248,4.5,10.4,51,0.04,RA,BKN,0.04,0.0,WeatherDisplay:10.37,2013-09-02 22:44:00,
2013-09-02 12:49:00,86.9,67.2,30.03,NNW,338,2.0,4.6,52,0.04,RA,BKN,0.04,0.0,WeatherDisplay:10.37,2013-09-02 22:49:00,
2013-09-02 12:54:00,85.5,65.8,30.03,WSW,248,2.6,4.6,52,0.04,SCT,BKN,0.04,0.0,WeatherDisplay:10.37,2013-09-02 22:54:00,
2013-09-02 12:59:00,84.7,65.2,30.03,ENE,68,6.2,8.1,52,0.04,SCT,BKN,0.04,0.0,WeatherDisplay:10.37,2013-09-02 22:59:00,
2013-09-02 13:04:00,84.9,65.9,30.03,NE,45,2.6,8.1,53,0.04,SCT,BKN,0.04,0.0,WeatherDisplay:10.37,2013-09-02 23:04:00,
2013-09-02 13:09:00,86.7,67.5,30.03,NNE,22,2.6,5.8,53,0.04,SCT,BKN,0.04,0.0,WeatherDisplay:10.37,2013-09-02 23:09:00,
2013-09-02 13:14:00,87.3,67.5,30.03,NNW,338,2.2,4.6,52,0.04,SCT,BKN,0.04,0.0,WeatherDisplay:10.37,2013-09-02 23:14:00,
2013-09-02 13:19:00,85.5,65.3,30.03,NNW,338,4.5,6.9,51,0.04,SCT,BKN,0.04,0.0,WeatherDisplay:10.37,2013-09-02 23:19:00,
2013-09-02 13:24:00,86.0,66.3,30.03,SSW,202,2.4,4.6,52,0.04,SCT,BKN,0.04,0.0,WeatherDisplay:10.37,2013-09-02 23:24:00,
2013-09-02 13:29:00,86.2,66.5,30.03,North,0,2.9,2.9,52,0.04,SCT,BKN,0.04,0.0,WeatherDisplay:10.37,2013-09-02 23:29:00,
2013-09-02 13:34:00,85.6,66.0,30.03,NNE,22,3.3,5.8,52,0.04,SCT,BKN,0.04,0.0,WeatherDisplay:10.37,2013-09-02 23:34:00,
2013-09-02 13:39:00,85.5,65.8,30.03,NE,45,4.9,6.9,52,0.04,SCT,BKN,0.04,0.0,WeatherDisplay:10.37,2013-09-02 23:39:00,
2013-09-02 13:44:00,84.2,64.1,30.03,NNW,338,4.5,5.8,51,0.00,SCT,BKN,0.04,0.0,WeatherDisplay:10.37,2013-09-02 23:44:00,
2013-09-02 13:49:00,86.5,66.3,30.03,NNW,338,3.1,3.8,51,0.00,SCT,BKN,0.04,0.0,WeatherDisplay:10.37,2013-09-02 23:49:00,
2013-09-02 13:54:00,88.0,66.4,30.03,SSW,202,2.6,4.6,49,0.00,SCT,BKN,0.04,0.0,WeatherDisplay:10.37,2013-09-02 23:54:00,
2013-09-02 13:59:00,87.1,65.6,30.03,NE,45,2.9,4.3,49,0.00,SCT,BKN,0.04,0.0,WeatherDisplay:10.37,2013-09-02 23:59:00,
2013-09-02 14:04:00,88.5,66.9,30.03,West,270,2.2,2.3,49,0.00,SCT,BKN,0.04,0.0,WeatherDisplay:10.37,2013-09-03 00:04:00,
2013-09-02 14:09:00,89.1,66.2,30.00,SE,135,1.6,4.6,47,0.00,SCT,BKN,0.04,0.0,WeatherDisplay:10.37,2013-09-03 00:09:00,
2013-09-02 14:15:00,88.9,64.8,30.00,NE,45,3.8,5.8,45,0.00,SCT,BKN,0.04,0.0,WeatherDisplay:10.37,2013-09-03 00:15:00,
2013-09-02 14:20:00,88.3,64.9,30.00,NNE,22,2.9,4.6,46,0.00,SCT,BKN,0.04,0.0,WeatherDisplay:10.37,2013-09-03 00:20:00,
2013-09-02 14:25:00,87.8,64.4,30.00,North,0,4.0,8.1,46,0.00,SCT,BKN,0.04,0.0,WeatherDisplay:10.37,2013-09-03 00:25:00,
2013-09-02 14:30:00,89.4,66.5,30.00,SE,135,3.3,5.9,47,0.00,SCT,BKN,0.04,0.0,WeatherDisplay:10.37,2013-09-03 00:30:00,
2013-09-02 14:35:00,89.8,66.2,30.00,North,0,3.8,6.9,46,0.00,SCT,BKN,0.04,0.0,WeatherDisplay:10.37,2013-09-03 00:35:00,
2013-09-02 14:40:00,88.9,64.8,30.00,North,0,4.0,4.6,45,0.00,SCT,BKN,0.04,0.0,WeatherDisplay:10.37,2013-09-03 00:40:00,
2013-09-02 14:45:00,87.1,65.0,30.00,ESE,112,3.8,5.8,48,0.00,SCT,BKN,0.04,0.0,WeatherDisplay:10.37,2013-09-03 00:45:00,
2013-09-02 14:50:00,87.4,64.1,30.00,NE,45,2.9,5.8,46,0.00,SCT,BKN,0.04,0.0,WeatherDisplay:10.37,2013-09-03 00:50:00,
2013-09-02 14:55:00,89.4,67.1,30.00,WNW,292,2.4,3.5,48,0.00,SCT,BKN,0.04,0.0,WeatherDisplay:10.37,2013-09-03 00:55:00,
2013-09-02 15:00:00,89.8,65.0,30.00,East,90,4.5,8.1,44,0.00,SCT,BKN,0.04,0.0,WeatherDisplay:10.37,2013-09-03 01:00:00,
2013-09-02 15:05:00,89.6,64.8,30.00,NE,45,4.7,5.8,44,0.00,SCT,BKN,0.04,0.0,WeatherDisplay:10.37,2013-09-03 01:05:00,
2013-09-02 15:10:00,88.9,64.8,29.97,NE,45,4.7,6.9,45,0.00,SCT,BKN,0.04,0.0,WeatherDisplay:10.37,2013-09-03 01:10:00,
2013-09-02 15:15:00,88.2,64.8,29.97,North,0,4.3,8.1,46,0.00,SCT,BKN,0.04,0.0,WeatherDisplay:10.37,2013-09-03 01:15:00,
2013-09-02 15:20:00,88.5,65.7,29.97,NNW,338,3.1,5.8,47,0.00,SCT,BKN,0.04,0.0,WeatherDisplay:10.37,2013-09-03 01:20:00,
2013-09-02 15:25:00,88.7,64.6,30.00,North,0,4.5,6.9,45,0.00,SCT,BKN,0.04,0.0,WeatherDisplay:10.37,2013-09-03 01:25:00,
2013-09-02 15:30:00,89.4,66.5,30.00,ESE,112,1.6,4.0,47,0.00,SCT,BKN,0.04,0.0,WeatherDisplay:10.37,2013-09-03 01:30:00,
2013-09-02 15:36:00,90.7,66.4,30.00,East,90,4.3,4.6,45,0.00,SCT,BKN,0.04,0.0,WeatherDisplay:10.37,2013-09-03 01:36:00,
2013-09-02 15:41:00,90.7,64.4,29.97,ENE,68,2.6,8.1,42,0.00,SCT,BKN,0.04,0.0,WeatherDisplay:10.37,2013-09-03 01:41:00,
2013-09-02 15:46:00,89.2,63.1,29.97,NNE,22,3.1,3.5,42,0.00,SCT,BKN,0.04,0.0,WeatherDisplay:10.37,2013-09-03 01:46:00,
2013-09-02 15:51:00,90.1,65.3,29.97,NNW,338,2.9,8.1,44,0.00,SCT,BKN,0.04,0.0,WeatherDisplay:10.37,2013-09-03 01:51:00,
2013-09-02 15:56:00,89.1,65.0,30.00,North,0,3.1,3.5,45,0.00,SCT,BKN,0.04,0.0,WeatherDisplay:10.37,2013-09-03 01:56:00,
2013-09-02 16:01:00,90.0,65.8,30.00,NNW,338,3.3,4.6,45,0.00,SCT,BKN,0.04,0.0,WeatherDisplay:10.37,2013-09-03 02:01:00,
2013-09-02 16:06:00,89.2,63.8,30.00,NE,45,5.9,8.5,43,0.00,SCT,BKN,0.04,0.0,WeatherDisplay:10.37,2013-09-03 02:06:00,
2013-09-02 16:11:00,88.2,63.5,30.00,NNE,22,2.2,5.8,44,0.00,SCT,BKN,0.04,0.0,WeatherDisplay:10.37,2013-09-03 02:11:00,
2013-09-02 16:16:00,88.3,63.0,30.00,North,0,4.0,4.6,43,0.00,SCT,BKN,0.04,0.0,WeatherDisplay:10.37,2013-09-03 02:16:00,
2013-09-02 16:21:00,88.3,63.0,30.00,NE,45,4.3,5.8,43,0.00,SCT,BKN,0.04,0.0,WeatherDisplay:10.37,2013-09-03 02:21:00,
2013-09-02 16:26:00,88.3,63.7,29.97,North,0,3.8,3.8,44,0.00,SCT,BKN,0.04,0.0,WeatherDisplay:10.37,2013-09-03 02:26:00,
2013-09-02 16:31:00,87.8,62.5,29.97,East,90,4.9,5.9,43,0.00,SCT,BKN,0.04,0.0,WeatherDisplay:10.37,2013-09-03 02:31:00,
2013-09-02 16:36:00,87.6,64.3,29.97,NE,45,0.9,5.8,46,0.00,SCT,BKN,0.04,0.0,WeatherDisplay:10.37,2013-09-03 02:36:00,
2013-09-02 16:41:00,87.4,64.7,29.97,ENE,68,3.3,6.0,47,0.00,SCT,BKN,0.04,0.0,WeatherDisplay:10.37,2013-09-03 02:41:00,
2013-09-02 16:46:00,87.1,62.5,29.97,NE,45,3.6,5.8,44,0.00,SCT,BKN,0.04,0.0,WeatherDisplay:10.37,2013-09-03 02:46:00,
2013-09-02 16:51:00,86.2,62.3,29.97,North,0,4.7,6.9,45,0.00,SCT,BKN,0.04,0.0,WeatherDisplay:10.37,2013-09-03 02:51:00,
2013-09-02 16:56:00,85.8,62.0,30.00,East,90,3.6,6.9,45,0.00,SCT,BKN,0.04,0.0,WeatherDisplay:10.37,2013-09-03 02:56:00,
2013-09-02 17:01:00,85.8,63.3,30.00,NNE,22,3.1,5.8,47,0.00,SCT,BKN,0.04,0.0,WeatherDisplay:10.37,2013-09-03 03:01:00,
2013-09-02 17:06:00,85.5,63.5,30.00,ENE,68,3.3,5.8,48,0.00,SCT,BKN,0.04,0.0,WeatherDisplay:10.37,2013-09-03 03:06:00,
2013-09-02 17:11:00,84.7,62.9,30.00,South,180,3.1,3.5,48,0.00,SCT,BKN,0.04,0.0,WeatherDisplay:10.37,2013-09-03 03:11:00,
2013-09-02 17:16:00,83.5,62.9,30.00,NE,45,3.8,5.8,50,0.00,SCT,BKN,0.04,0.0,WeatherDisplay:10.37,2013-09-03 03:16:00,
2013-09-02 17:21:00,83.5,62.9,30.00,NNE,22,2.6,5.8,50,0.00,SCT,BKN,0.04,0.0,WeatherDisplay:10.37,2013-09-03 03:21:00,
2013-09-02 17:26:00,83.1,62.6,30.00,NE,45,3.8,5.8,50,0.00,SCT,BKN,0.04,0.0,WeatherDisplay:10.37,2013-09-03 03:26:00,
2013-09-02 17:31:00,83.1,63.1,30.00,North,0,3.6,4.6,51,0.00,SCT,BKN,0.04,0.0,WeatherDisplay:10.37,2013-09-03 03:31:00,
2013-09-02 17:36:00,83.1,63.7,30.00,NE,45,3.3,5.8,52,0.00,SCT,BKN,0.04,0.0,WeatherDisplay:10.37,2013-09-03 03:36:00,
2013-09-02 17:41:00,82.4,64.6,30.00,NE,45,2.9,4.6,55,0.00,SCT,BKN,0.04,0.0,WeatherDisplay:10.37,2013-09-03 03:41:00,
2013-09-02 17:46:00,82.0,64.3,30.00,NE,45,6.0,6.9,55,0.00,SCT,BKN,0.04,0.0,WeatherDisplay:10.37,2013-09-03 03:46:00,
2013-09-02 17:51:00,81.0,63.8,30.00,NNE,22,5.6,8.1,56,0.00,SCT,BKN,0.04,0.0,WeatherDisplay:10.37,2013-09-03 03:51:00,
2013-09-02 17:56:00,81.1,64.0,30.00,NE,45,4.5,6.0,56,0.00,SCT,BKN,0.04,0.0,WeatherDisplay:10.37,2013-09-03 03:56:00,
2013-09-02 18:01:00,81.0,63.8,30.00,ENE,68,4.5,6.9,56,0.00,SCT,BKN,0.04,0.0,WeatherDisplay:10.37,2013-09-03 04:01:00,
2013-09-02 18:03:00,81.0,63.8,30.00,NE,45,4.0,4.9,56,0.00,SCT,BKN,0.04,0.0,WeatherDisplay:10.37,2013-09-03 04:03:00,
2013-09-02 18:08:00,80.6,64.0,30.00,NNE,22,4.0,4.6,57,0.00,SCT,BKN,0.04,0.0,WeatherDisplay:10.37,2013-09-03 04:08:00,
2013-09-02 18:10:00,80.8,63.6,30.00,NE,45,3.3,5.9,56,0.00,SCT,BKN,0.04,0.0,WeatherDisplay:10.37,2013-09-03 04:10:00,
2013-09-02 18:15:00,80.2,63.1,30.00,NE,45,4.5,8.1,56,0.00,SCT,BKN,0.04,0.0,WeatherDisplay:10.37,2013-09-03 04:15:00,
2013-09-02 18:20:00,79.3,63.8,30.00,NE,45,5.9,6.9,59,0.00,SCT,BKN,0.04,0.0,WeatherDisplay:10.37,2013-09-03 04:20:00,
2013-09-02 18:25:00,77.9,63.4,30.03,NNE,22,4.3,5.4,61,0.00,SCT,BKN,0.04,0.0,WeatherDisplay:10.37,2013-09-03 04:25:00,
2013-09-02 18:30:00,77.2,63.2,30.03,North,0,3.6,5.8,62,0.00,SCT,BKN,0.04,0.0,WeatherDisplay:10.37,2013-09-03 04:30:00,
2013-09-02 18:35:00,76.8,63.3,30.03,NE,45,6.2,9.2,63,0.00,SCT,BKN,0.04,0.0,WeatherDisplay:10.37,2013-09-03 04:35:00,
2013-09-02 18:40:00,76.5,63.4,30.03,NE,45,3.1,4.6,64,0.00,SCT,BKN,0.04,0.0,WeatherDisplay:10.37,2013-09-03 04:40:00,
2013-09-02 18:45:00,76.3,64.1,30.03,NNE,22,3.3,4.6,66,0.00,SCT,BKN,0.04,0.0,WeatherDisplay:10.37,2013-09-03 04:45:00,
2013-09-02 18:50:00,76.1,63.9,30.03,NE,45,6.0,6.9,66,0.00,SCT,BKN,0.04,0.0,WeatherDisplay:10.37,2013-09-03 04:50:00,
2013-09-02 18:55:00,75.9,63.7,30.03,NE,45,3.1,5.8,66,0.00,SCT,BKN,0.04,0.0,WeatherDisplay:10.37,2013-09-03 04:55:00,
2013-09-02 19:00:00,75.7,64.0,30.03,NE,45,4.5,5.8,67,0.00,SCT,BKN,0.04,0.0,WeatherDisplay:10.37,2013-09-03 05:00:00,
2013-09-02 19:05:00,75.7,64.0,30.03,NNE,22,4.3,7.1,67,0.00,SCT,BKN,0.04,0.0,WeatherDisplay:10.37,2013-09-03 05:05:00,
2013-09-02 19:10:00,75.7,64.0,30.03,NE,45,3.1,4.6,67,0.00,SCT,BKN,0.04,0.0,WeatherDisplay:10.37,2013-09-03 05:10:00,
2013-09-02 19:15:00,75.6,63.8,30.03,NE,45,5.4,8.1,67,0.00,SCT,BKN,0.04,0.0,WeatherDisplay:10.37,2013-09-03 05:15:00,
2013-09-02 19:20:00,75.6,63.8,30.03,ENE,68,3.6,4.9,67,0.00,SCT,BKN,0.04,0.0,WeatherDisplay:10.37,2013-09-03 05:20:00,
2013-09-02 19:25:00,75.4,63.7,30.03,NE,45,4.7,6.9,67,0.00,SCT,BKN,0.04,0.0,WeatherDisplay:10.37,2013-09-03 05:25:00,
2013-09-02 19:30:00,75.4,63.7,30.03,NE,45,7.6,8.1,67,0.00,SCT,BKN,0.04,0.0,WeatherDisplay:10.37,2013-09-03 05:30:00,
2013-09-02 19:35:00,75.4,64.1,30.03,NNE,22,5.9,8.1,68,0.00,SCT,BKN,0.04,0.0,WeatherDisplay:10.37,2013-09-03 05:35:00,
2013-09-02 19:40:00,75.4,63.7,30.03,NE,45,6.0,6.0,67,0.00,SCT,BKN,0.04,0.0,WeatherDisplay:10.37,2013-09-03 05:40:00,
2013-09-02 19:45:00,75.4,64.1,30.03,NE,45,2.4,8.1,68,0.00,SCT,BKN,0.04,0.0,WeatherDisplay:10.37,2013-09-03 05:45:00,
2013-09-02 19:50:00,75.4,64.1,30.03,NE,45,3.1,5.9,68,0.00,SCT,BKN,0.04,0.0,WeatherDisplay:10.37,2013-09-03 05:50:00,
2013-09-02 19:55:00,75.2,63.9,30.03,NE,45,4.3,8.1,68,0.00,SCT,BKN,0.04,0.0,WeatherDisplay:10.37,2013-09-03 05:55:00,
2013-09-02 20:00:00,75.2,64.3,30.03,NNE,22,3.3,6.9,69,0.00,SCT,BKN,0.04,0.0,WeatherDisplay:10.37,2013-09-03 06:00:00,
2013-09-02 20:05:00,75.2,64.3,30.03,NE,45,3.1,5.8,69,0.00,SCT,BKN,0.04,0.0,WeatherDisplay:10.37,2013-09-03 06:05:00,
2013-09-02 20:10:00,75.2,64.3,30.06,NNE,22,3.6,5.8,69,0.00,SCT,BKN,0.04,0.0,WeatherDisplay:10.37,2013-09-03 06:10:00,
2013-09-02 20:15:00,75.2,64.3,30.06,NE,45,3.6,10.2,69,0.00,SCT,BKN,0.04,0.0,WeatherDisplay:10.37,2013-09-03 06:15:00,
2013-09-02 20:21:00,75.2,63.9,30.06,NNE,22,4.5,8.7,68,0.00,SCT,BKN,0.04,0.0,WeatherDisplay:10.37,2013-09-03 06:21:00,
2013-09-02 20:26:00,75.2,63.9,30.06,NNE,22,3.8,5.4,68,0.00,SCT,BKN,0.04,0.0,WeatherDisplay:10.37,2013-09-03 06:26:00,
2013-09-02 20:31:00,75.2,64.3,30.06,NE,45,4.5,8.1,69,0.00,SCT,BKN,0.04,0.0,WeatherDisplay:10.37,2013-09-03 06:31:00,
2013-09-02 20:36:00,75.0,64.6,30.06,NE,45,5.6,9.2,70,0.00,SCT,BKN,0.04,0.0,WeatherDisplay:10.37,2013-09-03 06:36:00,
2013-09-02 20:41:00,75.0,64.6,30.06,ENE,68,4.3,5.8,70,0.00,SCT,BKN,0.04,0.0,WeatherDisplay:10.37,2013-09-03 06:41:00,
2013-09-02 20:46:00,75.0,64.2,30.06,NNE,22,6.4,8.1,69,0.00,SCT,BKN,0.04,0.0,WeatherDisplay:10.37,2013-09-03 06:46:00,
2013-09-02 20:51:00,75.2,64.3,30.06,NE,45,4.7,6.9,69,0.00,SCT,BKN,0.04,0.0,WeatherDisplay:10.37,2013-09-03 06:51:00,
2013-09-02 20:56:00,75.2,64.3,30.06,ENE,68,4.5,5.8,69,0.00,SCT,BKN,0.04,0.0,WeatherDisplay:10.37,2013-09-03 06:56:00,
2013-09-02 21:01:00,75.2,64.3,30.06,NNE,22,4.5,5.8,69,0.00,SCT,BKN,0.04,0.0,WeatherDisplay:10.37,2013-09-03 07:01:00,
2013-09-02 21:06:00,75.2,64.3,30.06,NE,45,7.1,8.1,69,0.00,SCT,BKN,0.04,0.0,WeatherDisplay:10.37,2013-09-03 07:06:00,
2013-09-02 21:11:00,75.2,64.7,30.06,NE,45,5.9,5.9,70,0.00,SCT,BKN,0.04,0.0,WeatherDisplay:10.37,2013-09-03 07:11:00,
2013-09-02 21:16:00,75.2,64.7,30.06,East,90,6.2,10.4,70,0.00,SCT,BKN,0.04,0.0,WeatherDisplay:10.37,2013-09-03 07:16:00,
2013-09-02 21:21:00,75.0,64.6,30.06,NE,45,4.5,6.2,70,0.00,SCT,BKN,0.04,0.0,WeatherDisplay:10.37,2013-09-03 07:21:00,
2013-09-02 21:26:00,75.2,64.7,30.03,NNE,22,3.1,5.8,70,0.00,SCT,BKN,0.04,0.0,WeatherDisplay:10.37,2013-09-03 07:26:00,
2013-09-02 21:31:00,75.2,64.3,30.03,ENE,68,2.9,4.6,69,0.00,SCT,BKN,0.04,0.0,WeatherDisplay:10.37,2013-09-03 07:31:00,
2013-09-02 21:36:00,75.0,64.6,30.03,NNW,338,3.3,5.4,70,0.00,SCT,BKN,0.04,0.0,WeatherDisplay:10.37,2013-09-03 07:36:00,
2013-09-02 21:41:00,75.2,64.7,30.06,NE,45,3.1,4.6,70,0.00,SCT,BKN,0.04,0.0,WeatherDisplay:10.37,2013-09-03 07:41:00,
2013-09-02 21:46:00,75.0,64.6,30.06,ENE,68,2.9,3.5,70,0.00,SCT,BKN,0.04,0.0,WeatherDisplay:10.37,2013-09-03 07:46:00,
2013-09-02 21:51:00,75.2,64.7,30.06,NNW,338,3.3,4.3,70,0.00,SCT,BKN,0.04,0.0,WeatherDisplay:10.37,2013-09-03 07:51:00,
2013-09-02 21:56:00,75.2,64.7,30.06,North,0,4.3,5.8,70,0.00,SCT,BKN,0.04,0.0,WeatherDisplay:10.37,2013-09-03 07:56:00,
2013-09-02 22:01:00,75.0,64.6,30.06,South,180,2.4,4.6,70,0.00,SCT,BKN,0.04,0.0,WeatherDisplay:10.37,2013-09-03 08:01:00,
2013-09-02 22:06:00,75.0,64.6,30.06,NNE,22,2.9,9.2,70,0.00,SCT,BKN,0.04,0.0,WeatherDisplay:10.37,2013-09-03 08:06:00,
2013-09-02 22:11:00,75.0,65.0,30.06,NNE,22,3.1,4.3,71,0.00,SCT,BKN,0.04,0.0,WeatherDisplay:10.37,2013-09-03 08:11:00,
2013-09-02 22:16:00,75.0,64.6,30.06,North,0,2.9,4.0,70,0.00,SCT,BKN,0.04,0.0,WeatherDisplay:10.37,2013-09-03 08:16:00,
2013-09-02 22:21:00,75.0,65.0,30.06,NNE,22,3.8,4.7,71,0.00,SCT,BKN,0.04,0.0,WeatherDisplay:10.37,2013-09-03 08:21:00,
2013-09-02 22:26:00,75.0,65.0,30.06,NE,45,4.5,5.8,71,0.00,SCT,BKN,0.04,0.0,WeatherDisplay:10.37,2013-09-03 08:26:00,
2013-09-02 22:31:00,75.0,65.0,30.06,NE,45,3.6,5.8,71,0.00,SCT,BKN,0.04,0.0,WeatherDisplay:10.37,2013-09-03 08:31:00,
2013-09-02 22:36:00,75.0,65.0,30.06,ENE,68,4.3,5.8,71,0.00,SCT,BKN,0.04,0.0,WeatherDisplay:10.37,2013-09-03 08:36:00,
2013-09-02 22:41:00,75.0,65.0,30.06,ENE,68,6.4,6.9,71,0.00,SCT,BKN,0.04,0.0,WeatherDisplay:10.37,2013-09-03 08:41:00,
2013-09-02 22:46:00,75.0,65.0,30.06,NNE,22,4.0,5.8,71,0.00,SCT,BKN,0.04,0.0,WeatherDisplay:10.37,2013-09-03 08:46:00,
2013-09-02 22:51:00,75.2,65.1,30.06,NE,45,4.5,5.8,71,0.00,SCT,BKN,0.04,0.0,WeatherDisplay:10.37,2013-09-03 08:51:00,
2013-09-02 22:56:00,75.2,65.1,30.06,NNE,22,4.9,6.4,71,0.00,SCT,BKN,0.04,0.0,WeatherDisplay:10.37,2013-09-03 08:56:00,
2013-09-02 23:01:00,75.2,65.1,30.06,NNE,22,2.4,4.6,71,0.00,SCT,BKN,0.04,0.0,WeatherDisplay:10.37,2013-09-03 09:01:00,
2013-09-02 23:06:00,75.2,65.1,30.06,NE,45,2.9,3.5,71,0.00,SCT,BKN,0.04,0.0,WeatherDisplay:10.37,2013-09-03 09:06:00,
2013-09-02 23:11:00,75.0,65.0,30.06,West,270,1.2,3.3,71,0.00,SCT,BKN,0.04,0.0,WeatherDisplay:10.37,2013-09-03 09:11:00,
2013-09-02 23:16:00,75.2,64.7,30.06,NNW,338,3.6,3.6,70,0.00,SCT,BKN,0.04,0.0,WeatherDisplay:10.37,2013-09-03 09:16:00,
2013-09-02 23:21:00,75.2,65.1,30.06,ENE,68,2.4,4.6,71,0.00,SCT,BKN,0.04,0.0,WeatherDisplay:10.37,2013-09-03 09:21:00,
2013-09-02 23:26:00,75.2,65.1,30.06,NE,45,2.9,6.9,71,0.00,SCT,BKN,0.04,0.0,WeatherDisplay:10.37,2013-09-03 09:26:00,
2013-09-02 23:31:00,75.0,65.0,30.06,NE,45,2.6,6.4,71,0.00,SCT,BKN,0.04,0.0,WeatherDisplay:10.37,2013-09-03 09:31:00,
2013-09-02 23:36:00,75.0,65.0,30.06,NNE,22,4.0,4.6,71,0.00,SCT,BKN,0.04,0.0,WeatherDisplay:10.37,2013-09-03 09:36:00,
2013-09-02 23:41:00,75.0,65.0,30.06,NNE,22,3.6,5.8,71,0.00,SCT,BKN,0.04,0.0,WeatherDisplay:10.37,2013-09-03 09:41:00,
2013-09-02 23:46:00,75.0,65.0,30.06,NE,45,3.3,5.8,71,0.00,SCT,BKN,0.04,0.0,WeatherDisplay:10.37,2013-09-03 09:46:00,
2013-09-02 23:51:00,75.0,65.0,30.06,NE,45,4.3,5.8,71,0.00,SCT,BKN,0.04,0.0,WeatherDisplay:10.37,2013-09-03 09:51:00,
2013-09-02 23:56:00,75.0,64.6,30.03,NNE,22,3.3,5.8,70,0.00,SCT,BKN,0.04,0.0,WeatherDisplay:10.37,2013-09-03 09:56:00,